Time;durP1;ratioP1;P1;durP2;ratioP2;P2;SDS_P1;SDS_P2;PMS_P1;PMS_P2;Temp;Humidity;BMP_temperature;BMP_pressure;BME280_temperature;BME280_humidity;BME280_pressure;Samples;Min_cycle;Max_cycle;Signal;HPM_P1;HPM_P2
2023/05/15 00:00:47;;;;;;;;;;;13.20;99.90;;;;;;5054554;28;19980;-85
2023/05/15 00:03:17;;;;;;;;;;;13.30;99.90;;;;;;5053556;28;20369;-84
2023/05/15 00:05:44;;;;;;;;;;;13.30;99.90;;;;;;5054519;28;19932;-84
2023/05/15 00:08:11;;;;;;;;;;;13.20;99.90;;;;;;5056700;28;19928;-84
2023/05/15 00:10:39;;;;;;;;;;;13.20;99.90;;;;;;5055412;28;20008;-85
2023/05/15 00:13:07;;;;;;;;;;;13.10;99.90;;;;;;5052360;28;19929;-83
2023/05/15 00:15:34;;;;;;;;;;;13.10;99.90;;;;;;5051874;28;19925;-84
2023/05/15 00:18:07;;;;;;;;;;;13.10;99.90;;;;;;5048922;28;19928;-85
2023/05/15 00:20:34;;;;;;;;;;;13.10;99.90;;;;;;5054110;28;19912;-83
2023/05/15 00:23:01;;;;;;;;;;;13.00;99.90;;;;;;5055483;28;19992;-84
2023/05/15 00:25:28;;;;;;;;;;;13.10;99.90;;;;;;5047693;28;19964;-85
2023/05/15 00:27:55;;;;;;;;;;;13.10;99.90;;;;;;5059708;28;19936;-83
2023/05/15 00:30:23;;;;;;;;;;;13.00;99.90;;;;;;5056957;28;19937;-85
2023/05/15 00:32:57;;;;;;;;;;;13.00;99.90;;;;;;5063950;28;19990;-86
2023/05/15 00:35:23;;;;;;;;;;;13.00;99.90;;;;;;5054912;28;19968;-85
2023/05/15 00:37:50;;;;;;;;;;;13.00;99.90;;;;;;5050565;28;20012;-83
2023/05/15 00:40:19;;;;;;;;;;;12.90;99.90;;;;;;5033982;28;19930;-84
2023/05/15 00:42:46;;;;;;;;;;;14.30;99.90;;;;;;5053901;28;20177;-84
2023/05/15 00:45:14;;;;;;;;;;;12.80;99.90;;;;;;5041235;28;19929;-84
2023/05/15 00:47:47;;;;;;;;;;;12.90;99.90;;;;;;5035248;28;19925;-84
2023/05/15 00:50:14;;;;;;;;;;;12.90;99.90;;;;;;5033792;28;20303;-86
2023/05/15 00:52:45;;;;;;;;;;;12.90;99.90;;;;;;5038275;28;20582;-85
2023/05/15 00:55:12;;;;;;;;;;;12.90;99.90;;;;;;5037008;28;20028;-84
2023/05/15 00:57:39;;;;;;;;;;;;;;;;;;5038347;28;19971;-86
2023/05/15 01:00:09;;;;;;;;;;;12.90;99.90;;;;;;5051686;28;19928;-87
2023/05/15 01:02:37;;;;;;;;;;;12.90;99.90;;;;;;5053864;28;19986;-86
2023/05/15 01:05:06;;;;;;;;;;;12.90;99.90;;;;;;5055634;28;19929;-84
2023/05/15 01:07:38;;;;;;;;;;;12.80;99.90;;;;;;5040728;28;19929;-86
2023/05/15 01:10:06;;;;;;;;;;;12.80;99.90;;;;;;5054772;28;19928;-87
2023/05/15 01:12:33;;;;;;;;;;;12.70;99.90;;;;;;5050784;28;19925;-86
2023/05/15 01:15:00;;;;;;;;;;;12.70;99.90;;;;;;5045657;28;20407;-86
2023/05/15 01:17:27;;;;;;;;;;;12.60;99.90;;;;;;5052744;28;19925;-86
2023/05/15 01:19:56;;;;;;;;;;;12.60;99.90;;;;;;5057553;28;19936;-85
2023/05/15 01:22:33;;;;;;;;;;;12.50;99.90;;;;;;5058446;28;20531;-86
2023/05/15 01:25:08;;;;;;;;;;;12.50;99.90;;;;;;5052623;28;19936;-87
2023/05/15 01:27:37;;;;;;;;;;;12.40;99.90;;;;;;5039621;28;19936;-86
2023/05/15 01:30:07;;;;;;;;;;;12.40;99.90;;;;;;5038999;28;19971;-85
2023/05/15 01:32:43;;;;;;;;;;;12.40;99.90;;;;;;5040546;28;20666;-85
2023/05/15 01:35:13;;;;;;;;;;;12.30;99.90;;;;;;5044445;28;19996;-84
2023/05/15 01:37:42;;;;;;;;;;;12.30;99.90;;;;;;5062827;28;19930;-86
2023/05/15 01:40:10;;;;;;;;;;;12.30;99.90;;;;;;5061354;28;19936;-86
2023/05/15 01:42:41;;;;;;;;;;;12.20;99.90;;;;;;5043168;28;19948;-86
2023/05/15 01:45:11;;;;;;;;;;;14.60;99.90;;;;;;5053694;28;20046;-86
2023/05/15 01:47:39;;;;;;;;;;;12.20;99.90;;;;;;5064173;28;20023;-86
2023/05/15 01:50:07;;;;;;;;;;;12.20;99.90;;;;;;5064730;28;19959;-87
2023/05/15 01:52:35;;;;;;;;;;;12.20;99.90;;;;;;5059758;28;19931;-86
2023/05/15 01:55:03;;;;;;;;;;;12.20;99.90;;;;;;5054166;28;19936;-88
2023/05/15 01:57:31;;;;;;;;;;;12.20;99.90;;;;;;5062937;28;19929;-87
2023/05/15 01:59:59;;;;;;;;;;;12.10;99.90;;;;;;5061925;28;19992;-86
2023/05/15 02:02:26;;;;;;;;;;;12.20;99.90;;;;;;5062786;28;20023;-85
2023/05/15 02:04:56;;;;;;;;;;;12.30;99.90;;;;;;5052463;28;19979;-84
2023/05/15 02:07:23;;;;;;;;;;;12.40;99.90;;;;;;5057130;28;19926;-85
2023/05/15 02:09:50;;;;;;;;;;;12.40;99.90;;;;;;5048154;28;19925;-86
2023/05/15 02:12:18;;;;;;;;;;;12.50;99.90;;;;;;5057040;28;19936;-85
2023/05/15 02:14:44;;;;;;;;;;;12.50;99.90;;;;;;5037937;28;19928;-85
2023/05/15 02:17:13;;;;;;;;;;;12.60;99.90;;;;;;5033642;28;20015;-87
2023/05/15 02:19:40;;;;;;;;;;;12.60;99.90;;;;;;5035323;28;19932;-86
2023/05/15 02:22:06;;;;;;;;;;;12.70;99.90;;;;;;5051244;28;19935;-86
2023/05/15 02:24:33;;;;;;;;;;;12.80;99.90;;;;;;5052084;28;19935;-85
2023/05/15 02:27:05;;;;;;;;;;;12.80;99.90;;;;;;5048682;28;20020;-86
2023/05/15 02:29:34;;;;;;;;;;;13.00;99.90;;;;;;5052644;28;19952;-85
2023/05/15 02:32:05;;;;;;;;;;;13.00;99.90;;;;;;5051101;28;19951;-86
2023/05/15 02:34:37;;;;;;;;;;;13.10;99.90;;;;;;5050516;28;19924;-85
2023/05/15 02:37:07;;;;;;;;;;;13.10;99.90;;;;;;5052978;28;19921;-87
2023/05/15 02:39:35;;;;;;;;;;;13.20;99.90;;;;;;5052366;28;19928;-87
2023/05/15 02:42:02;;;;;;;;;;;13.20;99.90;;;;;;5069211;28;19925;-86
2023/05/15 02:44:29;;;;;;;;;;;13.20;99.90;;;;;;5059458;28;19935;-86
2023/05/15 02:46:57;;;;;;;;;;;13.30;99.90;;;;;;5065959;28;20298;-87
2023/05/15 02:49:24;;;;;;;;;;;13.30;99.90;;;;;;5052049;28;19929;-85
2023/05/15 02:51:52;;;;;;;;;;;13.30;99.90;;;;;;5039569;28;19925;-86
2023/05/15 02:54:19;;;;;;;;;;;13.30;99.90;;;;;;5054543;28;19944;-86
2023/05/15 02:56:46;;;;;;;;;;;13.30;99.90;;;;;;5053943;28;20303;-85
2023/05/15 02:59:17;;;;;;;;;;;13.30;99.90;;;;;;5051530;28;19932;-84
2023/05/15 03:01:44;;;;;;;;;;;13.30;99.90;;;;;;5051326;28;20394;-85
2023/05/15 03:04:10;;;;;;;;;;;13.20;99.90;;;;;;5052068;28;19931;-85
2023/05/15 03:06:37;;;;;;;;;;;13.20;99.90;;;;;;5051215;28;19935;-84
2023/05/15 03:09:05;;;;;;;;;;;13.20;99.90;;;;;;5069683;28;19928;-83
2023/05/15 03:11:32;;;;;;;;;;;13.20;99.90;;;;;;5055264;28;19929;-83
2023/05/15 03:13:59;;;;;;;;;;;13.10;99.90;;;;;;5053277;28;20255;-82
2023/05/15 03:16:27;;;;;;;;;;;13.20;99.90;;;;;;5052682;28;19928;-82
2023/05/15 03:18:54;;;;;;;;;;;13.20;99.90;;;;;;5053187;28;19925;-84
2023/05/15 03:21:20;;;;;;;;;;;13.10;99.90;;;;;;5053117;28;20015;-83
2023/05/15 03:23:47;;;;;;;;;;;10.90;99.90;;;;;;5054355;28;20339;-86
2023/05/15 03:26:15;;;;;;;;;;;13.10;99.90;;;;;;5052490;28;19935;-83
2023/05/15 03:28:42;;;;;;;;;;;13.00;99.90;;;;;;5051876;28;20386;-83
2023/05/15 03:31:09;;;;;;;;;;;13.00;99.90;;;;;;5044272;28;19925;-83
2023/05/15 03:33:35;;;;;;;;;;;13.00;99.90;;;;;;5030189;28;20006;-83
2023/05/15 03:36:02;;;;;;;;;;;13.00;99.90;;;;;;5045635;28;20335;-84
2023/05/15 03:38:30;;;;;;;;;;;13.00;99.90;;;;;;5044288;28;19936;-83
2023/05/15 03:40:57;;;;;;;;;;;12.90;99.90;;;;;;5043624;28;19956;-83
2023/05/15 03:43:25;;;;;;;;;;;12.90;99.90;;;;;;5038512;28;19925;-84
2023/05/15 03:45:52;;;;;;;;;;;12.90;99.90;;;;;;5045141;28;19935;-84
2023/05/15 03:48:19;;;;;;;;;;;12.90;99.90;;;;;;5046336;28;20359;-85
2023/05/15 03:50:46;;;;;;;;;;;12.90;99.90;;;;;;5032654;28;19954;-85
2023/05/15 03:53:12;;;;;;;;;;;12.90;99.90;;;;;;5049467;28;19956;-84
2023/05/15 03:55:39;;;;;;;;;;;12.90;99.90;;;;;;5049204;28;19936;-84
2023/05/15 03:58:06;;;;;;;;;;;12.90;99.90;;;;;;5050985;28;19948;-85
2023/05/15 04:00:35;;;;;;;;;;;12.90;99.90;;;;;;5048138;28;20448;-84
2023/05/15 04:03:01;;;;;;;;;;;12.80;99.90;;;;;;5044662;28;19925;-84
2023/05/15 04:05:29;;;;;;;;;;;12.90;99.90;;;;;;5035291;28;19932;-86
2023/05/15 04:07:55;;;;;;;;;;;12.90;99.90;;;;;;5037129;28;19925;-84
2023/05/15 04:10:22;;;;;;;;;;;12.90;99.90;;;;;;5040476;28;19925;-85
2023/05/15 04:12:50;;;;;;;;;;;12.90;99.90;;;;;;5048720;28;19936;-86
2023/05/15 04:15:19;;;;;;;;;;;12.90;99.90;;;;;;5045099;28;19933;-86
2023/05/15 04:17:48;;;;;;;;;;;12.90;99.90;;;;;;5035483;28;19929;-86
2023/05/15 04:20:16;;;;;;;;;;;12.90;99.90;;;;;;5038907;28;19928;-86
2023/05/15 04:22:44;;;;;;;;;;;12.80;99.90;;;;;;5034892;28;20338;-86
2023/05/15 04:25:13;;;;;;;;;;;12.80;99.90;;;;;;5037312;28;19933;-85
2023/05/15 04:27:40;;;;;;;;;;;12.80;99.90;;;;;;5043555;28;20470;-84
2023/05/15 04:30:08;;;;;;;;;;;13.40;99.90;;;;;;5042086;28;19928;-85
2023/05/15 04:32:36;;;;;;;;;;;12.90;99.90;;;;;;5056324;28;19929;-84
2023/05/15 04:35:05;;;;;;;;;;;13.00;99.90;;;;;;5059422;28;19932;-85
2023/05/15 04:37:32;;;;;;;;;;;13.00;99.90;;;;;;5057385;28;19964;-84
2023/05/15 04:39:58;;;;;;;;;;;13.00;99.90;;;;;;5049685;28;19931;-84
2023/05/15 04:42:25;;;;;;;;;;;13.10;99.90;;;;;;5051759;28;19983;-84
2023/05/15 04:44:54;;;;;;;;;;;13.20;99.90;;;;;;5054619;28;19969;-82
2023/05/15 04:47:21;;;;;;;;;;;13.20;99.90;;;;;;5047207;28;19925;-84
2023/05/15 04:49:48;;;;;;;;;;;13.40;99.90;;;;;;5037156;28;20351;-87
2023/05/15 04:52:17;;;;;;;;;;;13.50;99.90;;;;;;5049080;28;19928;-84
2023/05/15 04:54:44;;;;;;;;;;;13.60;99.90;;;;;;5036730;28;20323;-85
2023/05/15 04:57:10;;;;;;;;;;;13.60;99.90;;;;;;5044663;28;19932;-86
2023/05/15 04:59:37;;;;;;;;;;;13.70;99.90;;;;;;5041320;28;19956;-84
2023/05/15 05:02:04;;;;;;;;;;;13.70;99.90;;;;;;5051871;28;19955;-86
2023/05/15 05:04:31;;;;;;;;;;;13.70;99.90;;;;;;5047297;28;19929;-86
2023/05/15 05:06:58;;;;;;;;;;;13.70;99.90;;;;;;5045567;28;19929;-86
2023/05/15 05:09:26;;;;;;;;;;;13.70;99.90;;;;;;5046922;28;19932;-86
2023/05/15 05:11:53;;;;;;;;;;;13.60;99.90;;;;;;5055306;28;20310;-85
2023/05/15 05:14:20;;;;;;;;;;;14.20;99.90;;;;;;5041801;28;19940;-87
2023/05/15 05:16:47;;;;;;;;;;;13.60;99.90;;;;;;5047111;28;19948;-85
2023/05/15 05:19:14;;;;;;;;;;;13.60;99.90;;;;;;5062174;28;19925;-84
2023/05/15 05:21:40;;;;;;;;;;;13.60;99.90;;;;;;5053719;28;19933;-88
2023/05/15 05:24:07;;;;;;;;;;;13.60;99.90;;;;;;5054274;28;19912;-87
2023/05/15 05:26:35;;;;;;;;;;;13.60;99.90;;;;;;5041978;28;19948;-86
2023/05/15 05:29:02;;;;;;;;;;;15.00;99.90;;;;;;5051794;28;19936;-87
2023/05/15 05:31:28;;;;;;;;;;;13.70;99.90;;;;;;5052084;28;19929;-88
2023/05/15 05:33:55;;;;;;;;;;;11.90;99.90;;;;;;5045363;28;19929;-86
2023/05/15 05:36:22;;;;;;;;;;;13.80;99.90;;;;;;5045121;28;19929;-86
2023/05/15 05:38:49;;;;;;;;;;;14.00;99.90;;;;;;5049208;28;19935;-88
2023/05/15 05:41:15;;;;;;;;;;;14.10;99.90;;;;;;5050411;28;19933;-87
2023/05/15 05:43:43;;;;;;;;;;;14.10;99.90;;;;;;5035163;28;19929;-85
2023/05/15 05:46:10;;;;;;;;;;;14.20;99.90;;;;;;5032293;28;19936;-87
2023/05/15 05:48:37;;;;;;;;;;;14.10;99.90;;;;;;5033131;28;19952;-87
2023/05/15 05:51:04;;;;;;;;;;;14.20;99.90;;;;;;5040299;28;19929;-84
2023/05/15 05:53:30;;;;;;;;;;;14.30;99.90;;;;;;5049530;28;19940;-84
2023/05/15 05:55:57;;;;;;;;;;;14.40;99.90;;;;;;5059105;28;20031;-83
2023/05/15 05:58:24;;;;;;;;;;;14.50;99.90;;;;;;5061014;28;19935;-84
2023/05/15 06:00:52;;;;;;;;;;;14.50;99.90;;;;;;5060548;28;19921;-83
2023/05/15 06:03:19;;;;;;;;;;;14.60;99.90;;;;;;5068158;28;19929;-82
2023/05/15 06:05:46;;;;;;;;;;;14.70;99.90;;;;;;5069430;28;19929;-83
2023/05/15 06:08:13;;;;;;;;;;;15.00;99.90;;;;;;5052479;28;19981;-81
2023/05/15 06:10:40;;;;;;;;;;;15.10;99.90;;;;;;5056796;28;19933;-83
2023/05/15 06:13:07;;;;;;;;;;;15.20;99.90;;;;;;5071843;28;19924;-83
2023/05/15 06:15:34;;;;;;;;;;;15.40;99.90;;;;;;5065955;28;19963;-83
2023/05/15 06:18:02;;;;;;;;;;;15.70;99.90;;;;;;5072826;28;19984;-83
2023/05/15 06:20:28;;;;;;;;;;;15.20;99.90;;;;;;5074263;28;19916;-83
2023/05/15 06:22:55;;;;;;;;;;;16.60;99.90;;;;;;5069392;28;19939;-83
2023/05/15 06:25:22;;;;;;;;;;;17.40;99.90;;;;;;5065765;28;19921;-83
2023/05/15 06:27:49;;;;;;;;;;;17.50;99.90;;;;;;5073615;28;19923;-83
2023/05/15 06:30:15;;;;;;;;;;;18.00;99.90;;;;;;5073739;28;19913;-82
2023/05/15 06:32:42;;;;;;;;;;;18.40;99.90;;;;;;5054007;28;19913;-82
2023/05/15 06:35:10;;;;;;;;;;;18.40;99.90;;;;;;5052809;28;20006;-83
2023/05/15 06:37:37;;;;;;;;;;;18.30;99.90;;;;;;5054132;28;19913;-82
2023/05/15 06:40:04;;;;;;;;;;;17.80;99.90;;;;;;5067859;28;20058;-81
2023/05/15 06:42:31;;;;;;;;;;;17.60;99.90;;;;;;5057847;28;19928;-83
2023/05/15 06:44:58;;;;;;;;;;;17.20;99.90;;;;;;5048877;28;19925;-84
2023/05/15 06:47:25;;;;;;;;;;;17.00;99.90;;;;;;5060344;28;19929;-85
2023/05/15 06:49:51;;;;;;;;;;;17.00;99.90;;;;;;5058746;28;19936;-83
2023/05/15 06:52:20;;;;;;;;;;;17.00;99.90;;;;;;5051089;28;19932;-83
2023/05/15 06:54:47;;;;;;;;;;;17.10;99.90;;;;;;5052256;28;19925;-83
2023/05/15 06:57:14;;;;;;;;;;;17.00;99.90;;;;;;5053439;28;19932;-84
2023/05/15 06:59:40;;;;;;;;;;;17.00;99.90;;;;;;5052781;28;19925;-83
2023/05/15 07:02:07;;;;;;;;;;;16.90;99.90;;;;;;5051665;28;20002;-83
2023/05/15 07:04:34;;;;;;;;;;;18.20;99.90;;;;;;5041524;28;20022;-85
2023/05/15 07:07:01;;;;;;;;;;;18.50;99.90;;;;;;5048234;28;20595;-83
2023/05/15 07:09:29;;;;;;;;;;;18.70;99.90;;;;;;5045377;28;19929;-84
2023/05/15 07:11:56;;;;;;;;;;;18.70;99.90;;;;;;5049067;28;19933;-82
2023/05/15 07:14:23;;;;;;;;;;;18.50;99.90;;;;;;5054568;28;19929;-82
2023/05/15 07:16:49;;;;;;;;;;;18.50;99.90;;;;;;5039454;28;19937;-84
2023/05/15 07:19:17;;;;;;;;;;;18.50;99.90;;;;;;5038557;28;19940;-81
2023/05/15 07:21:44;;;;;;;;;;;18.70;99.90;;;;;;5034073;28;19949;-84
2023/05/15 07:24:10;;;;;;;;;;;18.70;99.90;;;;;;5034786;28;20307;-83
2023/05/15 07:26:38;;;;;;;;;;;18.60;99.90;;;;;;5045022;28;20145;-81
2023/05/15 07:29:05;;;;;;;;;;;18.60;99.90;;;;;;5052285;28;19924;-83
2023/05/15 07:31:32;;;;;;;;;;;18.60;99.90;;;;;;5050525;28;19932;-82
2023/05/15 07:33:59;;;;;;;;;;;18.60;99.90;;;;;;5050673;28;19933;-84
2023/05/15 07:36:25;;;;;;;;;;;18.70;99.90;;;;;;5050809;28;19925;-84
2023/05/15 07:38:52;;;;;;;;;;;18.90;99.90;;;;;;5050181;28;19929;-83
2023/05/15 07:41:19;;;;;;;;;;;19.10;99.90;;;;;;5046888;28;20023;-84
2023/05/15 07:43:47;;;;;;;;;;;21.20;99.90;;;;;;5036250;28;19972;-83
2023/05/15 07:46:14;;;;;;;;;;;21.20;99.90;;;;;;5035039;28;19940;-85
2023/05/15 07:48:42;;;;;;;;;;;22.20;99.90;;;;;;5044357;28;19928;-84
2023/05/15 07:51:08;;;;;;;;;;;22.70;99.90;;;;;;5045771;28;19929;-83
2023/05/15 07:53:35;;;;;;;;;;;23.80;99.90;;;;;;5043099;28;19932;-86
2023/05/15 07:56:02;;;;;;;;;;;24.00;99.90;;;;;;5042675;28;19929;-85
2023/05/15 07:58:29;;;;;;;;;;;25.00;99.90;;;;;;5045667;28;19929;-83
2023/05/15 08:00:57;;;;;;;;;;;26.00;99.90;;;;;;5051084;28;19943;-85
2023/05/15 08:03:23;;;;;;;;;;;26.90;99.90;;;;;;5050695;28;19925;-85
2023/05/15 08:05:50;;;;;;;;;;;26.30;99.90;;;;;;5049501;28;19944;-86
2023/05/15 08:08:17;;;;;;;;;;;26.00;99.90;;;;;;5041824;28;19932;-83
2023/05/15 08:10:44;;;;;;;;;;;25.60;99.90;;;;;;5038476;28;20299;-84
2023/05/15 08:13:10;;;;;;;;;;;25.60;99.90;;;;;;5037885;28;19929;-85
2023/05/15 08:15:37;;;;;;;;;;;26.20;99.90;;;;;;5048685;28;19929;-84
2023/05/15 08:18:09;;;;;;;;;;;26.40;99.90;;;;;;5046078;28;19936;-86
2023/05/15 08:20:36;;;;;;;;;;;28.20;99.90;;;;;;5033540;28;19968;-85
2023/05/15 08:23:03;;;;;;;;;;;28.20;99.90;;;;;;5028263;28;19936;-85
2023/05/15 08:25:30;;;;;;;;;;;28.90;99.90;;;;;;5030753;28;19933;-85
2023/05/15 08:27:57;;;;;;;;;;;29.50;99.90;;;;;;5028005;28;19929;-85
2023/05/15 08:30:24;;;;;;;;;;;30.10;99.90;;;;;;5042073;28;19931;-84
2023/05/15 08:32:51;;;;;;;;;;;30.60;99.90;;;;;;5034870;28;19929;-85
2023/05/15 08:35:19;;;;;;;;;;;30.40;99.90;;;;;;5036988;28;19929;-85
2023/05/15 08:37:45;;;;;;;;;;;29.30;99.90;;;;;;5030235;28;19936;-85
2023/05/15 08:40:12;;;;;;;;;;;29.50;99.90;;;;;;5031954;28;19929;-84
2023/05/15 08:42:43;;;;;;;;;;;29.60;99.90;;;;;;5041804;28;20353;-84
2023/05/15 08:45:10;;;;;;;;;;;29.80;99.90;;;;;;5050646;28;19940;-84
2023/05/15 08:47:39;;;;;;;;;;;30.00;99.90;;;;;;5038147;28;20443;-84
2023/05/15 08:50:07;;;;;;;;;;;30.10;99.90;;;;;;5030969;28;19929;-85
2023/05/15 08:52:36;;;;;;;;;;;29.30;97.50;;;;;;5038047;28;19928;-84
2023/05/15 08:55:02;;;;;;;;;;;28.80;97.70;;;;;;5028805;28;19983;-84
2023/05/15 08:57:30;;;;;;;;;;;28.40;96.80;;;;;;5037157;28;19939;-84
2023/05/15 08:59:57;;;;;;;;;;;27.40;97.60;;;;;;5046017;28;20091;-84
2023/05/15 09:02:25;;;;;;;;;;;26.80;97.30;;;;;;5055138;28;19924;-83
2023/05/15 09:04:52;;;;;;;;;;;26.20;98.00;;;;;;5069609;28;19913;-83
2023/05/15 09:07:20;;;;;;;;;;;25.70;97.70;;;;;;5067864;28;19995;-83
2023/05/15 09:09:48;;;;;;;;;;;25.70;98.90;;;;;;5069727;28;19925;-83
2023/05/15 09:12:15;;;;;;;;;;;25.90;98.30;;;;;;5056492;28;19932;-84
2023/05/15 09:14:42;;;;;;;;;;;25.60;97.90;;;;;;5050904;28;19925;-83
2023/05/15 09:17:09;;;;;;;;;;;25.60;97.40;;;;;;5057841;28;20007;-82
2023/05/15 09:19:38;;;;;;;;;;;25.60;98.20;;;;;;5066807;28;19932;-82
2023/05/15 09:22:16;;;;;;;;;;;25.90;98.30;;;;;;5054877;28;20386;-84
2023/05/15 09:24:43;;;;;;;;;;;26.00;98.00;;;;;;5049143;28;19955;-83
2023/05/15 09:27:11;;;;;;;;;;;25.90;97.40;;;;;;5057517;28;19935;-83
2023/05/15 09:29:38;;;;;;;;;;;25.60;97.30;;;;;;5055343;28;19928;-82
2023/05/15 09:32:06;;;;;;;;;;;25.30;96.90;;;;;;5052689;28;19940;-83
2023/05/15 09:34:34;;;;;;;;;;;24.70;97.30;;;;;;5044243;28;20497;-82
2023/05/15 09:37:02;;;;;;;;;;;24.40;97.30;;;;;;5038428;28;19953;-82
2023/05/15 09:39:29;;;;;;;;;;;24.40;97.30;;;;;;5049364;28;21338;-81
2023/05/15 09:42:05;;;;;;;;;;;24.30;97.40;;;;;;5047541;28;19997;-82
2023/05/15 09:44:33;;;;;;;;;;;24.70;99.60;;;;;;5038136;28;19929;-85
2023/05/15 09:47:01;;;;;;;;;;;25.10;99.70;;;;;;5059416;28;19929;-85
2023/05/15 09:49:28;;;;;;;;;;;25.30;99.20;;;;;;5060755;28;19925;-83
2023/05/15 09:51:54;;;;;;;;;;;25.20;97.70;;;;;;5056053;28;19936;-85
2023/05/15 09:54:22;;;;;;;;;;;24.60;97.40;;;;;;5041998;28;19929;-82
2023/05/15 09:56:49;;;;;;;;;;;24.60;97.20;;;;;;5044654;28;19940;-83
2023/05/15 09:59:20;;;;;;;;;;;23.80;96.30;;;;;;5042845;28;19929;-84
2023/05/15 10:01:50;;;;;;;;;;;23.40;96.50;;;;;;5045423;28;19928;-84
2023/05/15 10:04:17;;;;;;;;;;;22.40;96.90;;;;;;5036456;28;19936;-84
2023/05/15 10:06:45;;;;;;;;;;;22.40;97.50;;;;;;5053644;28;19947;-84
2023/05/15 10:09:13;;;;;;;;;;;22.30;97.60;;;;;;5044366;28;20336;-83
2023/05/15 10:11:40;;;;;;;;;;;22.20;97.90;;;;;;5041716;28;19925;-84
2023/05/15 10:14:07;;;;;;;;;;;21.90;97.70;;;;;;5038275;28;20936;-82
2023/05/15 10:16:35;;;;;;;;;;;21.90;97.70;;;;;;5050526;28;20351;-83
2023/05/15 10:19:04;;;;;;;;;;;20.90;97.80;;;;;;5054706;28;19935;-85
2023/05/15 10:21:32;;;;;;;;;;;21.90;98.00;;;;;;5045375;28;19932;-84
2023/05/15 10:24:00;;;;;;;;;;;22.00;98.30;;;;;;5041574;28;19982;-84
2023/05/15 10:26:29;;;;;;;;;;;22.10;98.50;;;;;;5049726;28;19963;-82
2023/05/15 10:28:56;;;;;;;;;;;22.10;98.80;;;;;;5042733;28;19925;-85
2023/05/15 10:31:23;;;;;;;;;;;22.30;97.70;;;;;;5048107;28;19932;-82
2023/05/15 10:33:51;;;;;;;;;;;22.20;96.20;;;;;;5045913;28;19947;-84
2023/05/15 10:36:19;;;;;;;;;;;22.20;96.40;;;;;;5046310;28;19929;-83
2023/05/15 10:38:46;;;;;;;;;;;21.80;96.20;;;;;;5041182;28;19928;-83
2023/05/15 10:41:14;;;;;;;;;;;21.80;96.30;;;;;;5039879;28;20331;-83
2023/05/15 10:43:41;;;;;;;;;;;21.70;96.60;;;;;;5050639;28;19929;-84
2023/05/15 10:46:09;;;;;;;;;;;21.60;96.50;;;;;;5052598;28;19948;-85
2023/05/15 10:48:36;;;;;;;;;;;21.60;96.90;;;;;;5050806;28;19936;-82
2023/05/15 10:51:02;;;;;;;;;;;21.70;97.50;;;;;;5052204;28;19952;-84
2023/05/15 10:53:31;;;;;;;;;;;22.00;98.00;;;;;;5050097;28;19946;-83
2023/05/15 10:55:58;;;;;;;;;;;22.10;97.60;;;;;;5040057;28;19929;-84
2023/05/15 10:58:25;;;;;;;;;;;22.20;96.70;;;;;;5046471;28;19932;-86
2023/05/15 11:00:52;;;;;;;;;;;22.20;96.70;;;;;;5048693;28;20403;-82
2023/05/15 11:03:35;;;;;;;;;;;22.30;96.80;;;;;;5046907;28;19925;-86
2023/05/15 11:06:09;;;;;;;;;;;22.20;95.50;;;;;;5028383;28;19929;-84
2023/05/15 11:08:38;;;;;;;;;;;22.20;96.00;;;;;;5043833;28;20028;-83
2023/05/15 11:11:05;;;;;;;;;;;22.30;96.20;;;;;;5030989;28;19933;-86
2023/05/15 11:13:50;;;;;;;;;;;22.40;96.60;;;;;;5042632;28;19929;-85
2023/05/15 11:16:34;;;;;;;;;;;22.50;96.40;;;;;;5039856;28;21789;-86
2023/05/15 11:19:01;;;;;;;;;;;22.50;95.60;;;;;;5040188;28;19925;-83
2023/05/15 11:21:31;;;;;;;;;;;22.50;95.60;;;;;;5061483;28;19924;-81
2023/05/15 11:24:06;;;;;;;;;;;22.40;94.90;;;;;;5056119;28;19933;-82
2023/05/15 11:26:33;;;;;;;;;;;22.40;95.10;;;;;;5057429;28;19983;-83
2023/05/15 11:29:16;;;;;;;;;;;22.40;95.10;;;;;;5047124;28;19925;-86
2023/05/15 11:31:43;;;;;;;;;;;22.50;95.50;;;;;;5040607;28;19933;-84
2023/05/15 11:34:10;;;;;;;;;;;22.90;94.80;;;;;;5043906;28;19933;-86
2023/05/15 11:36:38;;;;;;;;;;;23.60;94.80;;;;;;5040573;28;20020;-86
2023/05/15 11:39:11;;;;;;;;;;;23.20;95.40;;;;;;5041017;28;20039;-86
2023/05/15 11:41:38;;;;;;;;;;;23.30;94.00;;;;;;5039552;28;19925;-85
2023/05/15 11:44:05;;;;;;;;;;;23.30;94.20;;;;;;5036088;28;19933;-86
2023/05/15 11:46:33;;;;;;;;;;;23.30;94.20;;;;;;5035930;28;19956;-83
2023/05/15 11:49:00;;;;;;;;;;;23.30;94.30;;;;;;5031908;28;20363;-83
2023/05/15 11:51:28;;;;;;;;;;;23.40;94.40;;;;;;5034796;28;20017;-81
2023/05/15 11:53:55;;;;;;;;;;;23.40;94.60;;;;;;5034440;28;19925;-81
2023/05/15 11:56:27;;;;;;;;;;;23.50;94.70;;;;;;5043951;28;19925;-81
2023/05/15 11:58:56;;;;;;;;;;;23.60;93.90;;;;;;5036087;28;19964;-81
2023/05/15 12:01:23;;;;;;;;;;;23.80;94.80;;;;;;5032620;28;19971;-81
2023/05/15 12:03:50;;;;;;;;;;;;;;;;;;5033568;28;19929;-84
2023/05/15 12:06:17;;;;;;;;;;;24.30;93.00;;;;;;5033313;28;19956;-82
2023/05/15 12:08:44;;;;;;;;;;;24.40;93.10;;;;;;5031846;28;20311;-82
2023/05/15 12:11:12;;;;;;;;;;;24.40;92.40;;;;;;5034170;28;19929;-84
2023/05/15 12:13:40;;;;;;;;;;;24.40;92.90;;;;;;5039181;28;19933;-83
2023/05/15 12:16:07;;;;;;;;;;;24.60;91.70;;;;;;5042520;28;20311;-83
2023/05/15 12:18:34;;;;;;;;;;;24.60;92.30;;;;;;5055398;28;19988;-83
2023/05/15 12:21:01;;;;;;;;;;;24.60;91.20;;;;;;5055129;28;19932;-83
2023/05/15 12:23:28;;;;;;;;;;;24.50;91.00;;;;;;5052864;28;19928;-84
2023/05/15 12:25:57;;;;;;;;;;;24.40;91.30;;;;;;5054290;28;19971;-84
2023/05/15 12:28:24;;;;;;;;;;;24.60;91.40;;;;;;5050849;28;19940;-86
2023/05/15 12:30:52;;;;;;;;;;;24.70;91.40;;;;;;5052741;28;20039;-84
2023/05/15 12:33:19;;;;;;;;;;;24.80;91.30;;;;;;5040146;28;19941;-87
2023/05/15 12:35:50;;;;;;;;;;;24.60;88.80;;;;;;5052552;28;19933;-88
2023/05/15 12:38:17;;;;;;;;;;;24.50;89.20;;;;;;5044749;28;19929;-85
2023/05/15 12:40:45;;;;;;;;;;;24.30;90.20;;;;;;5052411;28;19936;-85
2023/05/15 12:43:12;;;;;;;;;;;24.40;90.30;;;;;;5054022;28;19936;-85
2023/05/15 12:45:39;;;;;;;;;;;24.30;90.30;;;;;;5050684;28;20069;-84
2023/05/15 12:48:07;;;;;;;;;;;24.20;90.50;;;;;;5055355;28;19929;-86
2023/05/15 12:50:35;;;;;;;;;;;24.30;90.20;;;;;;5059165;28;19955;-83
2023/05/15 12:53:03;;;;;;;;;;;24.50;90.50;;;;;;5058959;28;19940;-85
2023/05/15 12:55:32;;;;;;;;;;;24.90;90.70;;;;;;5059751;28;19939;-86
2023/05/15 12:58:00;;;;;;;;;;;25.20;90.60;;;;;;5063317;28;19936;-85
2023/05/15 13:00:28;;;;;;;;;;;25.20;87.40;;;;;;5060296;28;19929;-86
2023/05/15 13:02:56;;;;;;;;;;;25.10;87.00;;;;;;5062489;28;19928;-83
2023/05/15 13:05:24;;;;;;;;;;;25.10;87.20;;;;;;5059585;28;19931;-86
2023/05/15 13:07:51;;;;;;;;;;;25.20;88.10;;;;;;5073308;28;19933;-84
2023/05/15 13:10:20;;;;;;;;;;;25.50;86.90;;;;;;5052653;28;19936;-84
2023/05/15 13:12:47;;;;;;;;;;;25.60;89.30;;;;;;5050353;28;20003;-83
2023/05/15 13:15:25;;;;;;;;;;;25.30;90.10;;;;;;5050233;28;19929;-83
2023/05/15 13:17:55;;;;;;;;;;;25.20;90.70;;;;;;5052603;28;19928;-83
2023/05/15 13:20:22;;;;;;;;;;;24.90;91.10;;;;;;5061823;28;19990;-84
2023/05/15 13:22:50;;;;;;;;;;;24.70;91.00;;;;;;5059538;28;19953;-84
2023/05/15 13:25:17;;;;;;;;;;;24.70;91.20;;;;;;5061376;28;19925;-86
2023/05/15 13:27:44;;;;;;;;;;;24.60;91.50;;;;;;5048960;28;19940;-87
2023/05/15 13:30:12;;;;;;;;;;;24.40;91.60;;;;;;5041576;28;19941;-85
2023/05/15 13:32:38;;;;;;;;;;;24.20;91.40;;;;;;5041511;28;19929;-84
2023/05/15 13:35:05;;;;;;;;;;;24.30;91.40;;;;;;5042844;28;19951;-85
2023/05/15 13:37:32;;;;;;;;;;;24.30;91.80;;;;;;5042214;28;19929;-85
2023/05/15 13:40:00;;;;;;;;;;;24.20;92.00;;;;;;5040416;28;20340;-84
2023/05/15 13:42:27;;;;;;;;;;;24.10;91.60;;;;;;5055150;28;19925;-86
2023/05/15 13:44:54;;;;;;;;;;;24.00;92.00;;;;;;5039521;28;19941;-83
2023/05/15 13:47:21;;;;;;;;;;;24.10;92.30;;;;;;5052690;28;20287;-85
2023/05/15 13:49:47;;;;;;;;;;;26.00;92.40;;;;;;5076199;28;19956;-83
2023/05/15 13:52:14;;;;;;;;;;;24.40;91.90;;;;;;5057075;28;19928;-85
2023/05/15 13:54:41;;;;;;;;;;;24.50;91.60;;;;;;5058594;28;20000;-84
2023/05/15 13:57:09;;;;;;;;;;;24.50;92.00;;;;;;5063023;28;19925;-84
2023/05/15 13:59:36;;;;;;;;;;;24.30;91.60;;;;;;5061174;28;19925;-83
2023/05/15 14:02:02;;;;;;;;;;;24.10;91.20;;;;;;5061250;28;19932;-83
2023/05/15 14:04:29;;;;;;;;;;;23.70;90.70;;;;;;5049186;28;19936;-83
2023/05/15 14:07:05;;;;;;;;;;;23.60;91.10;;;;;;5053360;28;19924;-87
2023/05/15 14:09:32;;;;;;;;;;;23.70;91.60;;;;;;5057515;28;19951;-85
2023/05/15 14:11:58;;;;;;;;;;;23.90;91.80;;;;;;5058070;28;19948;-86
2023/05/15 14:14:26;;;;;;;;;;;24.00;91.60;;;;;;5056930;28;19923;-86
2023/05/15 14:16:54;;;;;;;;;;;;;;;;;;5061241;28;19947;-85
2023/05/15 14:19:20;;;;;;;;;;;24.00;92.90;;;;;;5077558;28;19924;-85
2023/05/15 14:21:47;;;;;;;;;;;24.20;93.30;;;;;;5076856;28;19966;-85